sensor_id;sensor_type;location;lat;lon;timestamp;P1;P2;P0
46681;PMS5003;34101;53.430;-2.224;2023-04-10T00:00:10;31;30;
46681;PMS5003;34101;53.430;-2.224;2023-04-10T00:02:37;21;20;
46681;PMS5003;34101;53.430;-2.224;2023-04-10T00:05:05;26;25;
46681;PMS5003;34101;53.430;-2.224;2023-04-10T00:07:33;22;22;
46681;PMS5003;34101;53.430;-2.224;2023-04-10T00:10:00;30;27;
46681;PMS5003;34101;53.430;-2.224;2023-04-10T00:12:27;22;22;
46681;PMS5003;34101;53.430;-2.224;2023-04-10T00:14:54;28;26;
46681;PMS5003;34101;53.430;-2.224;2023-04-10T00:17:21;24;24;
46681;PMS5003;34101;53.430;-2.224;2023-04-10T00:19:48;24;22;
46681;PMS5003;34101;53.430;-2.224;2023-04-10T00:22:15;25;23;
46681;PMS5003;34101;53.430;-2.224;2023-04-10T00:24:42;27;24;
46681;PMS5003;34101;53.430;-2.224;2023-04-10T00:27:10;28;27;
46681;PMS5003;34101;53.430;-2.224;2023-04-10T00:29:37;26;25;
46681;PMS5003;34101;53.430;-2.224;2023-04-10T00:32:04;25;24;
46681;PMS5003;34101;53.430;-2.224;2023-04-10T00:34:32;23;21;
46681;PMS5003;34101;53.430;-2.224;2023-04-10T00:36:59;23;23;
46681;PMS5003;34101;53.430;-2.224;2023-04-10T00:39:26;26;26;
46681;PMS5003;34101;53.430;-2.224;2023-04-10T00:41:53;26;22;
46681;PMS5003;34101;53.430;-2.224;2023-04-10T00:44:21;30;28;
46681;PMS5003;34101;53.430;-2.224;2023-04-10T00:46:48;27;27;
46681;PMS5003;34101;53.430;-2.224;2023-04-10T00:49:15;24;24;
46681;PMS5003;34101;53.430;-2.224;2023-04-10T00:51:42;28;27;
46681;PMS5003;34101;53.430;-2.224;2023-04-10T00:54:10;26;25;
46681;PMS5003;34101;53.430;-2.224;2023-04-10T00:56:38;24;22;
46681;PMS5003;34101;53.430;-2.224;2023-04-10T00:59:06;34;32;
46681;PMS5003;34101;53.430;-2.224;2023-04-10T01:01:34;32;29;
46681;PMS5003;34101;53.430;-2.224;2023-04-10T01:04:01;28;26;
46681;PMS5003;34101;53.430;-2.224;2023-04-10T01:06:31;28;27;
46681;PMS5003;34101;53.430;-2.224;2023-04-10T01:09:15;29;27;
46681;PMS5003;34101;53.430;-2.224;2023-04-10T01:11:50;28;25;
46681;PMS5003;34101;53.430;-2.224;2023-04-10T01:14:25;29;29;
46681;PMS5003;34101;53.430;-2.224;2023-04-10T01:17:00;26;26;
46681;PMS5003;34101;53.430;-2.224;2023-04-10T01:22:24;30;29;
46681;PMS5003;34101;53.430;-2.224;2023-04-10T01:24:57;29;28;
46681;PMS5003;34101;53.430;-2.224;2023-04-10T01:27:39;27;27;
46681;PMS5003;34101;53.430;-2.224;2023-04-10T01:30:20;30;28;
46681;PMS5003;34101;53.430;-2.224;2023-04-10T01:32:48;27;27;
46681;PMS5003;34101;53.430;-2.224;2023-04-10T01:35:20;27;26;
46681;PMS5003;34101;53.430;-2.224;2023-04-10T01:37:49;31;30;
46681;PMS5003;34101;53.430;-2.224;2023-04-10T01:40:18;29;29;
46681;PMS5003;34101;53.430;-2.224;2023-04-10T01:42:49;28;28;
46681;PMS5003;34101;53.430;-2.224;2023-04-10T01:45:19;25;25;
46681;PMS5003;34101;53.430;-2.224;2023-04-10T01:47:52;30;30;
46681;PMS5003;34101;53.430;-2.224;2023-04-10T01:50:20;31;29;
46681;PMS5003;34101;53.430;-2.224;2023-04-10T01:52:47;28;27;
46681;PMS5003;34101;53.430;-2.224;2023-04-10T01:55:16;27;27;
46681;PMS5003;34101;53.430;-2.224;2023-04-10T01:57:46;33;32;
46681;PMS5003;34101;53.430;-2.224;2023-04-10T02:00:14;33;30;
46681;PMS5003;34101;53.430;-2.224;2023-04-10T02:02:42;35;32;
46681;PMS5003;34101;53.430;-2.224;2023-04-10T02:05:10;32;31;
46681;PMS5003;34101;53.430;-2.224;2023-04-10T02:07:40;36;32;
46681;PMS5003;34101;53.430;-2.224;2023-04-10T02:10:12;33;32;
46681;PMS5003;34101;53.430;-2.224;2023-04-10T02:12:45;31;30;
46681;PMS5003;34101;53.430;-2.224;2023-04-10T02:15:18;36;32;
46681;PMS5003;34101;53.430;-2.224;2023-04-10T02:17:48;38;33;
46681;PMS5003;34101;53.430;-2.224;2023-04-10T02:20:17;34;33;
46681;PMS5003;34101;53.430;-2.224;2023-04-10T02:22:45;30;27;
46681;PMS5003;34101;53.430;-2.224;2023-04-10T02:25:15;35;32;
46681;PMS5003;34101;53.430;-2.224;2023-04-10T02:27:47;33;32;
46681;PMS5003;34101;53.430;-2.224;2023-04-10T02:30:14;31;29;
46681;PMS5003;34101;53.430;-2.224;2023-04-10T02:32:41;30;28;
46681;PMS5003;34101;53.430;-2.224;2023-04-10T02:35:08;33;28;
46681;PMS5003;34101;53.430;-2.224;2023-04-10T02:37:35;36;32;
46681;PMS5003;34101;53.430;-2.224;2023-04-10T02:40:02;33;31;
46681;PMS5003;34101;53.430;-2.224;2023-04-10T02:42:30;27;27;
46681;PMS5003;34101;53.430;-2.224;2023-04-10T02:44:57;31;31;
46681;PMS5003;34101;53.430;-2.224;2023-04-10T02:47:24;29;27;
46681;PMS5003;34101;53.430;-2.224;2023-04-10T02:49:51;31;28;
46681;PMS5003;34101;53.430;-2.224;2023-04-10T02:52:19;27;27;
46681;PMS5003;34101;53.430;-2.224;2023-04-10T02:54:46;29;28;
46681;PMS5003;34101;53.430;-2.224;2023-04-10T02:57:14;33;32;
46681;PMS5003;34101;53.430;-2.224;2023-04-10T02:59:41;30;28;
46681;PMS5003;34101;53.430;-2.224;2023-04-10T03:02:09;32;31;
46681;PMS5003;34101;53.430;-2.224;2023-04-10T03:04:36;35;33;
46681;PMS5003;34101;53.430;-2.224;2023-04-10T03:07:03;34;34;
46681;PMS5003;34101;53.430;-2.224;2023-04-10T03:09:31;40;38;
46681;PMS5003;34101;53.430;-2.224;2023-04-10T03:11:58;35;33;
46681;PMS5003;34101;53.430;-2.224;2023-04-10T03:14:26;37;35;
46681;PMS5003;34101;53.430;-2.224;2023-04-10T03:16:54;29;28;
46681;PMS5003;34101;53.430;-2.224;2023-04-10T03:19:21;29;29;
46681;PMS5003;34101;53.430;-2.224;2023-04-10T03:21:48;30;27;
46681;PMS5003;34101;53.430;-2.224;2023-04-10T03:24:15;31;31;
46681;PMS5003;34101;53.430;-2.224;2023-04-10T03:26:43;33;31;
46681;PMS5003;34101;53.430;-2.224;2023-04-10T03:29:09;29;28;
46681;PMS5003;34101;53.430;-2.224;2023-04-10T03:31:36;33;32;
46681;PMS5003;34101;53.430;-2.224;2023-04-10T03:34:04;25;25;
46681;PMS5003;34101;53.430;-2.224;2023-04-10T03:36:32;25;23;
46681;PMS5003;34101;53.430;-2.224;2023-04-10T03:38:59;24;23;
46681;PMS5003;34101;53.430;-2.224;2023-04-10T03:41:26;30;26;
46681;PMS5003;34101;53.430;-2.224;2023-04-10T03:43:54;22;22;
46681;PMS5003;34101;53.430;-2.224;2023-04-10T03:46:21;25;22;
46681;PMS5003;34101;53.430;-2.224;2023-04-10T03:48:48;23;21;
46681;PMS5003;34101;53.430;-2.224;2023-04-10T03:51:15;24;23;
46681;PMS5003;34101;53.430;-2.224;2023-04-10T03:53:43;20;18;
46681;PMS5003;34101;53.430;-2.224;2023-04-10T03:56:10;23;22;
46681;PMS5003;34101;53.430;-2.224;2023-04-10T03:58:38;21;20;
46681;PMS5003;34101;53.430;-2.224;2023-04-10T04:01:05;18;18;
46681;PMS5003;34101;53.430;-2.224;2023-04-10T04:03:33;19;19;
46681;PMS5003;34101;53.430;-2.224;2023-04-10T04:06:00;25;25;
46681;PMS5003;34101;53.430;-2.224;2023-04-10T04:08:27;25;24;
46681;PMS5003;34101;53.430;-2.224;2023-04-10T04:10:54;21;20;
46681;PMS5003;34101;53.430;-2.224;2023-04-10T04:13:21;19;19;
46681;PMS5003;34101;53.430;-2.224;2023-04-10T04:15:48;18;18;
46681;PMS5003;34101;53.430;-2.224;2023-04-10T04:18:15;21;20;
46681;PMS5003;34101;53.430;-2.224;2023-04-10T04:20:43;20;19;
46681;PMS5003;34101;53.430;-2.224;2023-04-10T04:23:09;20;20;
46681;PMS5003;34101;53.430;-2.224;2023-04-10T04:25:36;20;20;
46681;PMS5003;34101;53.430;-2.224;2023-04-10T04:28:04;26;22;
46681;PMS5003;34101;53.430;-2.224;2023-04-10T04:30:31;18;18;
46681;PMS5003;34101;53.430;-2.224;2023-04-10T04:32:58;20;19;
46681;PMS5003;34101;53.430;-2.224;2023-04-10T04:35:25;25;23;
46681;PMS5003;34101;53.430;-2.224;2023-04-10T04:37:52;24;22;
46681;PMS5003;34101;53.430;-2.224;2023-04-10T04:40:20;21;19;
46681;PMS5003;34101;53.430;-2.224;2023-04-10T04:42:47;21;21;
46681;PMS5003;34101;53.430;-2.224;2023-04-10T04:45:14;20;20;
46681;PMS5003;34101;53.430;-2.224;2023-04-10T04:47:42;25;24;
46681;PMS5003;34101;53.430;-2.224;2023-04-10T04:50:10;18;18;
46681;PMS5003;34101;53.430;-2.224;2023-04-10T04:52:37;19;19;
46681;PMS5003;34101;53.430;-2.224;2023-04-10T04:55:05;17;16;
46681;PMS5003;34101;53.430;-2.224;2023-04-10T04:57:33;20;19;
46681;PMS5003;34101;53.430;-2.224;2023-04-10T05:00:00;17;17;
46681;PMS5003;34101;53.430;-2.224;2023-04-10T05:02:28;16;14;
46681;PMS5003;34101;53.430;-2.224;2023-04-10T05:04:55;17;16;
46681;PMS5003;34101;53.430;-2.224;2023-04-10T05:07:23;18;18;
46681;PMS5003;34101;53.430;-2.224;2023-04-10T05:09:50;15;14;
46681;PMS5003;34101;53.430;-2.224;2023-04-10T05:12:17;16;16;
46681;PMS5003;34101;53.430;-2.224;2023-04-10T05:14:44;18;16;
46681;PMS5003;34101;53.430;-2.224;2023-04-10T05:17:12;18;16;
46681;PMS5003;34101;53.430;-2.224;2023-04-10T05:19:39;17;17;
46681;PMS5003;34101;53.430;-2.224;2023-04-10T05:22:06;17;17;
46681;PMS5003;34101;53.430;-2.224;2023-04-10T05:24:34;18;15;
46681;PMS5003;34101;53.430;-2.224;2023-04-10T05:27:01;16;16;
46681;PMS5003;34101;53.430;-2.224;2023-04-10T05:29:29;18;18;
46681;PMS5003;34101;53.430;-2.224;2023-04-10T05:32:01;13;13;
46681;PMS5003;34101;53.430;-2.224;2023-04-10T05:34:28;13;13;
46681;PMS5003;34101;53.430;-2.224;2023-04-10T05:36:56;13;13;
46681;PMS5003;34101;53.430;-2.224;2023-04-10T05:39:24;11;11;
46681;PMS5003;34101;53.430;-2.224;2023-04-10T05:41:51;12;12;
46681;PMS5003;34101;53.430;-2.224;2023-04-10T05:44:18;12;12;
46681;PMS5003;34101;53.430;-2.224;2023-04-10T05:46:46;12;12;
46681;PMS5003;34101;53.430;-2.224;2023-04-10T05:49:13;12;12;
46681;PMS5003;34101;53.430;-2.224;2023-04-10T05:51:41;10;10;
46681;PMS5003;34101;53.430;-2.224;2023-04-10T05:54:09;13;10;
46681;PMS5003;34101;53.430;-2.224;2023-04-10T05:56:36;11;11;
46681;PMS5003;34101;53.430;-2.224;2023-04-10T05:59:04;10;10;
46681;PMS5003;34101;53.430;-2.224;2023-04-10T06:01:31;12;12;
46681;PMS5003;34101;53.430;-2.224;2023-04-10T06:03:58;13;11;
46681;PMS5003;34101;53.430;-2.224;2023-04-10T06:06:26;14;13;
46681;PMS5003;34101;53.430;-2.224;2023-04-10T06:08:53;15;14;
46681;PMS5003;34101;53.430;-2.224;2023-04-10T06:11:21;11;11;
46681;PMS5003;34101;53.430;-2.224;2023-04-10T06:13:48;12;12;
46681;PMS5003;34101;53.430;-2.224;2023-04-10T06:16:16;12;10;
46681;PMS5003;34101;53.430;-2.224;2023-04-10T06:18:48;10;8;
46681;PMS5003;34101;53.430;-2.224;2023-04-10T06:21:16;10;10;
46681;PMS5003;34101;53.430;-2.224;2023-04-10T06:23:44;10;10;
46681;PMS5003;34101;53.430;-2.224;2023-04-10T06:26:11;11;9;
46681;PMS5003;34101;53.430;-2.224;2023-04-10T06:28:39;11;11;
46681;PMS5003;34101;53.430;-2.224;2023-04-10T06:31:06;8;8;
46681;PMS5003;34101;53.430;-2.224;2023-04-10T06:33:34;9;9;
46681;PMS5003;34101;53.430;-2.224;2023-04-10T06:36:01;7;7;
46681;PMS5003;34101;53.430;-2.224;2023-04-10T06:38:29;10;10;
46681;PMS5003;34101;53.430;-2.224;2023-04-10T06:40:57;11;9;
46681;PMS5003;34101;53.430;-2.224;2023-04-10T06:43:24;7;7;
46681;PMS5003;34101;53.430;-2.224;2023-04-10T06:45:52;9;8;
46681;PMS5003;34101;53.430;-2.224;2023-04-10T06:48:19;8;8;
46681;PMS5003;34101;53.430;-2.224;2023-04-10T06:50:47;10;10;
46681;PMS5003;34101;53.430;-2.224;2023-04-10T06:53:14;8;8;
46681;PMS5003;34101;53.430;-2.224;2023-04-10T06:55:41;7;7;
46681;PMS5003;34101;53.430;-2.224;2023-04-10T06:58:09;9;9;
46681;PMS5003;34101;53.430;-2.224;2023-04-10T07:00:37;8;8;
46681;PMS5003;34101;53.430;-2.224;2023-04-10T07:03:05;8;7;
46681;PMS5003;34101;53.430;-2.224;2023-04-10T07:05:32;7;7;
46681;PMS5003;34101;53.430;-2.224;2023-04-10T07:08:00;7;7;
46681;PMS5003;34101;53.430;-2.224;2023-04-10T07:10:27;8;8;
46681;PMS5003;34101;53.430;-2.224;2023-04-10T07:12:54;6;6;
46681;PMS5003;34101;53.430;-2.224;2023-04-10T07:15:22;6;6;
46681;PMS5003;34101;53.430;-2.224;2023-04-10T07:17:49;8;7;
46681;PMS5003;34101;53.430;-2.224;2023-04-10T07:20:17;7;6;
46681;PMS5003;34101;53.430;-2.224;2023-04-10T07:22:44;6;6;
46681;PMS5003;34101;53.430;-2.224;2023-04-10T07:25:12;6;6;
46681;PMS5003;34101;53.430;-2.224;2023-04-10T07:27:39;6;5;
46681;PMS5003;34101;53.430;-2.224;2023-04-10T07:30:07;4;4;
46681;PMS5003;34101;53.430;-2.224;2023-04-10T07:32:40;7;7;
46681;PMS5003;34101;53.430;-2.224;2023-04-10T07:35:08;7;6;
46681;PMS5003;34101;53.430;-2.224;2023-04-10T07:37:36;7;7;
46681;PMS5003;34101;53.430;-2.224;2023-04-10T07:40:03;4;4;
46681;PMS5003;34101;53.430;-2.224;2023-04-10T07:42:31;4;4;
46681;PMS5003;34101;53.430;-2.224;2023-04-10T07:44:59;4;4;
46681;PMS5003;34101;53.430;-2.224;2023-04-10T07:47:26;5;5;
46681;PMS5003;34101;53.430;-2.224;2023-04-10T07:49:54;5;5;
46681;PMS5003;34101;53.430;-2.224;2023-04-10T07:52:26;6;6;
46681;PMS5003;34101;53.430;-2.224;2023-04-10T07:54:54;4;3;
46681;PMS5003;34101;53.430;-2.224;2023-04-10T07:57:21;4;4;
46681;PMS5003;34101;53.430;-2.224;2023-04-10T07:59:54;3;3;
46681;PMS5003;34101;53.430;-2.224;2023-04-10T08:02:22;3;3;
46681;PMS5003;34101;53.430;-2.224;2023-04-10T08:04:50;3;3;
46681;PMS5003;34101;53.430;-2.224;2023-04-10T08:07:17;4;4;
46681;PMS5003;34101;53.430;-2.224;2023-04-10T08:07:19;4;4;
46681;PMS5003;34101;53.430;-2.224;2023-04-10T08:09:46;5;5;
46681;PMS5003;34101;53.430;-2.224;2023-04-10T08:12:14;3;3;
46681;PMS5003;34101;53.430;-2.224;2023-04-10T08:14:46;2;2;
46681;PMS5003;34101;53.430;-2.224;2023-04-10T08:17:14;4;4;
46681;PMS5003;34101;53.430;-2.224;2023-04-10T08:19:42;5;4;
46681;PMS5003;34101;53.430;-2.224;2023-04-10T08:22:09;5;3;
46681;PMS5003;34101;53.430;-2.224;2023-04-10T08:24:42;1;1;
46681;PMS5003;34101;53.430;-2.224;2023-04-10T08:27:09;4;4;
46681;PMS5003;34101;53.430;-2.224;2023-04-10T08:29:36;3;3;
46681;PMS5003;34101;53.430;-2.224;2023-04-10T08:32:04;3;3;
46681;PMS5003;34101;53.430;-2.224;2023-04-10T08:34:31;2;2;
46681;PMS5003;34101;53.430;-2.224;2023-04-10T08:36:58;4;2;
46681;PMS5003;34101;53.430;-2.224;2023-04-10T08:39:26;3;3;
46681;PMS5003;34101;53.430;-2.224;2023-04-10T08:41:53;3;3;
46681;PMS5003;34101;53.430;-2.224;2023-04-10T08:44:21;4;2;
46681;PMS5003;34101;53.430;-2.224;2023-04-10T08:46:48;3;3;
46681;PMS5003;34101;53.430;-2.224;2023-04-10T08:49:21;3;1;
46681;PMS5003;34101;53.430;-2.224;2023-04-10T08:51:57;1;1;
46681;PMS5003;34101;53.430;-2.224;2023-04-10T08:54:27;2;2;
46681;PMS5003;34101;53.430;-2.224;2023-04-10T08:56:58;3;3;
46681;PMS5003;34101;53.430;-2.224;2023-04-10T08:59:26;1;1;
46681;PMS5003;34101;53.430;-2.224;2023-04-10T09:01:54;1;1;
46681;PMS5003;34101;53.430;-2.224;2023-04-10T09:04:22;3;3;
46681;PMS5003;34101;53.430;-2.224;2023-04-10T09:06:50;3;2;
46681;PMS5003;34101;53.430;-2.224;2023-04-10T09:09:20;2;2;
46681;PMS5003;34101;53.430;-2.224;2023-04-10T09:11:55;1;1;
46681;PMS5003;34101;53.430;-2.224;2023-04-10T09:14:24;2;1;
46681;PMS5003;34101;53.430;-2.224;2023-04-10T09:16:53;1;1;
46681;PMS5003;34101;53.430;-2.224;2023-04-10T09:20:03;3;0;
46681;PMS5003;34101;53.430;-2.224;2023-04-10T09:22:52;2;1;
46681;PMS5003;34101;53.430;-2.224;2023-04-10T09:25:27;1;0;
46681;PMS5003;34101;53.430;-2.224;2023-04-10T09:27:59;1;1;
46681;PMS5003;34101;53.430;-2.224;2023-04-10T09:30:34;3;2;
46681;PMS5003;34101;53.430;-2.224;2023-04-10T09:33:11;2;2;
46681;PMS5003;34101;53.430;-2.224;2023-04-10T09:35:48;0;0;
46681;PMS5003;34101;53.430;-2.224;2023-04-10T09:38:16;2;2;
46681;PMS5003;34101;53.430;-2.224;2023-04-10T09:40:45;2;2;
46681;PMS5003;34101;53.430;-2.224;2023-04-10T09:43:20;1;1;
46681;PMS5003;34101;53.430;-2.224;2023-04-10T09:45:49;1;1;
46681;PMS5003;34101;53.430;-2.224;2023-04-10T09:48:16;3;1;
46681;PMS5003;34101;53.430;-2.224;2023-04-10T09:50:44;1;1;
46681;PMS5003;34101;53.430;-2.224;2023-04-10T09:53:12;0;0;
46681;PMS5003;34101;53.430;-2.224;2023-04-10T09:55:42;2;2;
46681;PMS5003;34101;53.430;-2.224;2023-04-10T09:58:10;5;2;
46681;PMS5003;34101;53.430;-2.224;2023-04-10T10:00:39;0;0;
46681;PMS5003;34101;53.430;-2.224;2023-04-10T10:03:09;0;0;
46681;PMS5003;34101;53.430;-2.224;2023-04-10T10:05:39;3;3;
46681;PMS5003;34101;53.430;-2.224;2023-04-10T10:08:12;2;1;
46681;PMS5003;34101;53.430;-2.224;2023-04-10T10:10:43;1;1;
46681;PMS5003;34101;53.430;-2.224;2023-04-10T10:13:14;1;1;
46681;PMS5003;34101;53.430;-2.224;2023-04-10T10:15:48;3;2;
46681;PMS5003;34101;53.430;-2.224;2023-04-10T10:18:24;0;0;
46681;PMS5003;34101;53.430;-2.224;2023-04-10T10:21:02;1;0;
46681;PMS5003;34101;53.430;-2.224;2023-04-10T10:23:31;4;1;
46681;PMS5003;34101;53.430;-2.224;2023-04-10T10:26:01;0;0;
46681;PMS5003;34101;53.430;-2.224;2023-04-10T10:28:31;2;2;
46681;PMS5003;34101;53.430;-2.224;2023-04-10T10:31:01;1;1;
46681;PMS5003;34101;53.430;-2.224;2023-04-10T10:33:29;1;1;
46681;PMS5003;34101;53.430;-2.224;2023-04-10T10:35:57;1;1;
46681;PMS5003;34101;53.430;-2.224;2023-04-10T10:38:26;1;1;
46681;PMS5003;34101;53.430;-2.224;2023-04-10T10:40:56;0;0;
46681;PMS5003;34101;53.430;-2.224;2023-04-10T10:43:32;0;0;
46681;PMS5003;34101;53.430;-2.224;2023-04-10T10:46:11;1;1;
46681;PMS5003;34101;53.430;-2.224;2023-04-10T10:48:54;3;1;
46681;PMS5003;34101;53.430;-2.224;2023-04-10T10:51:21;0;0;
46681;PMS5003;34101;53.430;-2.224;2023-04-10T10:53:48;3;2;
46681;PMS5003;34101;53.430;-2.224;2023-04-10T10:56:48;1;0;
46681;PMS5003;34101;53.430;-2.224;2023-04-10T10:59:16;0;0;
46681;PMS5003;34101;53.430;-2.224;2023-04-10T11:01:55;3;2;
46681;PMS5003;34101;53.430;-2.224;2023-04-10T11:04:41;1;1;
46681;PMS5003;34101;53.430;-2.224;2023-04-10T11:07:08;2;1;
46681;PMS5003;34101;53.430;-2.224;2023-04-10T11:09:43;2;1;
46681;PMS5003;34101;53.430;-2.224;2023-04-10T11:12:11;4;2;
46681;PMS5003;34101;53.430;-2.224;2023-04-10T11:14:39;2;2;
46681;PMS5003;34101;53.430;-2.224;2023-04-10T11:17:11;2;2;
46681;PMS5003;34101;53.430;-2.224;2023-04-10T11:20:10;1;1;
46681;PMS5003;34101;53.430;-2.224;2023-04-10T11:22:55;3;3;
46681;PMS5003;34101;53.430;-2.224;2023-04-10T11:25:49;2;2;
46681;PMS5003;34101;53.430;-2.224;2023-04-10T11:28:34;2;2;
46681;PMS5003;34101;53.430;-2.224;2023-04-10T11:31:18;3;3;
46681;PMS5003;34101;53.430;-2.224;2023-04-10T11:33:49;6;5;
46681;PMS5003;34101;53.430;-2.224;2023-04-10T11:36:25;7;5;
46681;PMS5003;34101;53.430;-2.224;2023-04-10T11:38:53;5;4;
46681;PMS5003;34101;53.430;-2.224;2023-04-10T11:41:27;4;4;
46681;PMS5003;34101;53.430;-2.224;2023-04-10T11:43:56;3;3;
46681;PMS5003;34101;53.430;-2.224;2023-04-10T11:46:23;4;4;
46681;PMS5003;34101;53.430;-2.224;2023-04-10T11:48:51;4;4;
46681;PMS5003;34101;53.430;-2.224;2023-04-10T11:51:19;5;3;
46681;PMS5003;34101;53.430;-2.224;2023-04-10T11:53:47;3;3;
46681;PMS5003;34101;53.430;-2.224;2023-04-10T11:56:16;3;3;
46681;PMS5003;34101;53.430;-2.224;2023-04-10T11:58:44;5;5;
46681;PMS5003;34101;53.430;-2.224;2023-04-10T12:01:13;4;3;
46681;PMS5003;34101;53.430;-2.224;2023-04-10T12:03:41;2;2;
46681;PMS5003;34101;53.430;-2.224;2023-04-10T12:06:10;4;4;
46681;PMS5003;34101;53.430;-2.224;2023-04-10T12:08:39;2;2;
46681;PMS5003;34101;53.430;-2.224;2023-04-10T12:11:08;3;3;
46681;PMS5003;34101;53.430;-2.224;2023-04-10T12:13:36;3;3;
46681;PMS5003;34101;53.430;-2.224;2023-04-10T12:16:04;4;2;
46681;PMS5003;34101;53.430;-2.224;2023-04-10T12:18:33;3;3;
46681;PMS5003;34101;53.430;-2.224;2023-04-10T12:21:01;2;2;
46681;PMS5003;34101;53.430;-2.224;2023-04-10T12:23:32;3;2;
46681;PMS5003;34101;53.430;-2.224;2023-04-10T12:26:08;2;2;
46681;PMS5003;34101;53.430;-2.224;2023-04-10T12:28:38;0;0;
46681;PMS5003;34101;53.430;-2.224;2023-04-10T12:31:07;2;2;
46681;PMS5003;34101;53.430;-2.224;2023-04-10T12:33:34;2;0;
46681;PMS5003;34101;53.430;-2.224;2023-04-10T12:36:02;2;2;
46681;PMS5003;34101;53.430;-2.224;2023-04-10T12:38:37;1;1;
46681;PMS5003;34101;53.430;-2.224;2023-04-10T12:41:06;2;1;
46681;PMS5003;34101;53.430;-2.224;2023-04-10T12:43:34;1;1;
46681;PMS5003;34101;53.430;-2.224;2023-04-10T12:46:04;2;2;
46681;PMS5003;34101;53.430;-2.224;2023-04-10T12:48:33;1;1;
46681;PMS5003;34101;53.430;-2.224;2023-04-10T12:51:02;2;2;
46681;PMS5003;34101;53.430;-2.224;2023-04-10T12:53:30;2;1;
46681;PMS5003;34101;53.430;-2.224;2023-04-10T12:56:08;2;1;
46681;PMS5003;34101;53.430;-2.224;2023-04-10T12:58:35;2;1;
46681;PMS5003;34101;53.430;-2.224;2023-04-10T13:01:04;1;1;
46681;PMS5003;34101;53.430;-2.224;2023-04-10T13:03:32;1;1;
46681;PMS5003;34101;53.430;-2.224;2023-04-10T13:06:00;1;1;
46681;PMS5003;34101;53.430;-2.224;2023-04-10T13:08:28;1;1;
46681;PMS5003;34101;53.430;-2.224;2023-04-10T13:10:55;0;0;
46681;PMS5003;34101;53.430;-2.224;2023-04-10T13:13:23;1;1;
46681;PMS5003;34101;53.430;-2.224;2023-04-10T13:15:50;0;0;
46681;PMS5003;34101;53.430;-2.224;2023-04-10T13:18:17;1;1;
46681;PMS5003;34101;53.430;-2.224;2023-04-10T13:20:50;0;0;
46681;PMS5003;34101;53.430;-2.224;2023-04-10T13:23:17;0;0;
46681;PMS5003;34101;53.430;-2.224;2023-04-10T13:25:45;0;0;
46681;PMS5003;34101;53.430;-2.224;2023-04-10T13:28:12;0;0;
46681;PMS5003;34101;53.430;-2.224;2023-04-10T13:30:40;0;0;
46681;PMS5003;34101;53.430;-2.224;2023-04-10T13:33:07;0;0;
46681;PMS5003;34101;53.430;-2.224;2023-04-10T13:35:35;0;0;
46681;PMS5003;34101;53.430;-2.224;2023-04-10T13:38:07;0;0;
46681;PMS5003;34101;53.430;-2.224;2023-04-10T13:40:35;1;1;
46681;PMS5003;34101;53.430;-2.224;2023-04-10T13:43:02;0;0;
46681;PMS5003;34101;53.430;-2.224;2023-04-10T13:45:30;0;0;
46681;PMS5003;34101;53.430;-2.224;2023-04-10T13:47:57;0;0;
46681;PMS5003;34101;53.430;-2.224;2023-04-10T13:50:25;0;0;
46681;PMS5003;34101;53.430;-2.224;2023-04-10T13:52:52;0;0;
46681;PMS5003;34101;53.430;-2.224;2023-04-10T13:55:19;1;1;
46681;PMS5003;34101;53.430;-2.224;2023-04-10T13:57:47;1;0;
46681;PMS5003;34101;53.430;-2.224;2023-04-10T14:00:15;0;0;
46681;PMS5003;34101;53.430;-2.224;2023-04-10T14:02:44;0;0;
46681;PMS5003;34101;53.430;-2.224;2023-04-10T14:05:11;1;1;
46681;PMS5003;34101;53.430;-2.224;2023-04-10T14:07:38;0;0;
46681;PMS5003;34101;53.430;-2.224;2023-04-10T14:10:06;1;1;
46681;PMS5003;34101;53.430;-2.224;2023-04-10T14:12:35;0;0;
46681;PMS5003;34101;53.430;-2.224;2023-04-10T14:15:02;1;1;
46681;PMS5003;34101;53.430;-2.224;2023-04-10T14:17:31;1;1;
46681;PMS5003;34101;53.430;-2.224;2023-04-10T14:19:58;1;1;
46681;PMS5003;34101;53.430;-2.224;2023-04-10T14:22:25;2;2;
46681;PMS5003;34101;53.430;-2.224;2023-04-10T14:24:53;1;1;
46681;PMS5003;34101;53.430;-2.224;2023-04-10T14:27:20;2;2;
46681;PMS5003;34101;53.430;-2.224;2023-04-10T14:29:53;3;2;
46681;PMS5003;34101;53.430;-2.224;2023-04-10T14:32:20;1;1;
46681;PMS5003;34101;53.430;-2.224;2023-04-10T14:34:48;4;2;
46681;PMS5003;34101;53.430;-2.224;2023-04-10T14:37:15;2;1;
46681;PMS5003;34101;53.430;-2.224;2023-04-10T14:39:43;1;1;
46681;PMS5003;34101;53.430;-2.224;2023-04-10T14:42:10;2;2;
46681;PMS5003;34101;53.430;-2.224;2023-04-10T14:44:38;2;2;
46681;PMS5003;34101;53.430;-2.224;2023-04-10T14:47:05;3;2;
46681;PMS5003;34101;53.430;-2.224;2023-04-10T14:49:33;2;1;
46681;PMS5003;34101;53.430;-2.224;2023-04-10T14:52:00;2;1;
46681;PMS5003;34101;53.430;-2.224;2023-04-10T14:54:27;1;1;
46681;PMS5003;34101;53.430;-2.224;2023-04-10T14:56:55;0;0;
46681;PMS5003;34101;53.430;-2.224;2023-04-10T14:59:23;2;1;
46681;PMS5003;34101;53.430;-2.224;2023-04-10T15:01:51;1;1;
46681;PMS5003;34101;53.430;-2.224;2023-04-10T15:04:18;0;0;
46681;PMS5003;34101;53.430;-2.224;2023-04-10T15:06:46;1;1;
46681;PMS5003;34101;53.430;-2.224;2023-04-10T15:09:14;1;1;
46681;PMS5003;34101;53.430;-2.224;2023-04-10T15:11:41;2;2;
46681;PMS5003;34101;53.430;-2.224;2023-04-10T15:14:09;2;2;
46681;PMS5003;34101;53.430;-2.224;2023-04-10T15:16:41;1;1;
46681;PMS5003;34101;53.430;-2.224;2023-04-10T15:19:09;2;0;
46681;PMS5003;34101;53.430;-2.224;2023-04-10T15:21:36;2;1;
46681;PMS5003;34101;53.430;-2.224;2023-04-10T15:24:04;1;1;
46681;PMS5003;34101;53.430;-2.224;2023-04-10T15:26:31;0;0;
46681;PMS5003;34101;53.430;-2.224;2023-04-10T15:28:58;1;1;
46681;PMS5003;34101;53.430;-2.224;2023-04-10T15:31:26;1;1;
46681;PMS5003;34101;53.430;-2.224;2023-04-10T15:33:53;1;1;
46681;PMS5003;34101;53.430;-2.224;2023-04-10T15:36:21;0;0;
46681;PMS5003;34101;53.430;-2.224;2023-04-10T15:38:48;1;1;
46681;PMS5003;34101;53.430;-2.224;2023-04-10T15:41:16;1;1;
46681;PMS5003;34101;53.430;-2.224;2023-04-10T15:43:43;0;0;
46681;PMS5003;34101;53.430;-2.224;2023-04-10T15:46:11;0;0;
46681;PMS5003;34101;53.430;-2.224;2023-04-10T15:48:38;1;1;
46681;PMS5003;34101;53.430;-2.224;2023-04-10T15:51:06;1;1;
46681;PMS5003;34101;53.430;-2.224;2023-04-10T15:53:33;1;1;
46681;PMS5003;34101;53.430;-2.224;2023-04-10T15:56:02;1;1;
46681;PMS5003;34101;53.430;-2.224;2023-04-10T15:58:30;1;1;
46681;PMS5003;34101;53.430;-2.224;2023-04-10T16:00:57;0;0;
46681;PMS5003;34101;53.430;-2.224;2023-04-10T16:03:25;1;1;
46681;PMS5003;34101;53.430;-2.224;2023-04-10T16:05:53;2;1;
46681;PMS5003;34101;53.430;-2.224;2023-04-10T16:08:21;1;1;
46681;PMS5003;34101;53.430;-2.224;2023-04-10T16:10:48;1;1;
46681;PMS5003;34101;53.430;-2.224;2023-04-10T16:13:16;1;1;
46681;PMS5003;34101;53.430;-2.224;2023-04-10T16:15:43;2;2;
46681;PMS5003;34101;53.430;-2.224;2023-04-10T16:18:11;1;1;
46681;PMS5003;34101;53.430;-2.224;2023-04-10T16:20:39;1;1;
46681;PMS5003;34101;53.430;-2.224;2023-04-10T16:23:06;2;2;
46681;PMS5003;34101;53.430;-2.224;2023-04-10T16:25:39;2;2;
46681;PMS5003;34101;53.430;-2.224;2023-04-10T16:28:07;3;2;
46681;PMS5003;34101;53.430;-2.224;2023-04-10T16:30:34;1;1;
46681;PMS5003;34101;53.430;-2.224;2023-04-10T16:33:02;2;2;